Time;durP1;ratioP1;P1;durP2;ratioP2;P2;SDS_P1;SDS_P2;PMS_P1;PMS_P2;Temp;Humidity;BMP_temperature;BMP_pressure;BME280_temperature;BME280_humidity;BME280_pressure;Samples;Min_cycle;Max_cycle;Signal;HPM_P1;HPM_P2
2022/08/22 00:00:13;;;;;;;5.18;4.50;;;23.60;99.90;;;;;;6202017;28;89079;-64
2022/08/22 00:03:27;;;;;;;5.45;4.20;;;23.60;99.90;;;;;;6191243;28;89212;-64
2022/08/22 00:06:39;;;;;;;5.18;3.92;;;23.60;99.90;;;;;;6193552;28;89013;-64
2022/08/22 00:09:48;;;;;;;5.82;4.40;;;23.60;99.90;;;;;;6193607;28;87988;-64
2022/08/22 00:12:57;;;;;;;4.45;4.10;;;23.70;99.90;;;;;;6188775;28;89179;-64
2022/08/22 00:16:07;;;;;;;4.40;4.00;;;23.60;99.90;;;;;;6205592;28;88307;-64
2022/08/22 00:19:22;;;;;;;5.18;3.80;;;23.60;99.90;;;;;;6191820;28;89211;-64
2022/08/22 00:22:33;;;;;;;5.25;4.00;;;23.60;99.90;;;;;;6200352;28;89177;-64
2022/08/22 00:25:53;;;;;;;4.40;4.00;;;23.60;99.90;;;;;;6178915;28;89990;-64
2022/08/22 00:29:01;;;;;;;5.40;3.97;;;23.60;99.90;;;;;;6182049;28;89142;-64
2022/08/22 00:32:10;;;;;;;4.68;3.90;;;23.60;99.90;;;;;;6200243;28;87998;-64
2022/08/22 00:35:21;;;;;;;5.93;4.43;;;23.60;99.90;;;;;;6201351;28;88972;-64
2022/08/22 00:38:29;;;;;;;4.55;4.15;;;23.60;99.90;;;;;;6205118;28;87966;-64
2022/08/22 00:41:53;;;;;;;4.50;4.18;;;23.60;99.90;;;;;;6200777;28;88994;-64
2022/08/22 00:45:30;;;;;;;4.95;4.32;;;23.60;99.90;;;;;;6196647;28;89184;-64
2022/08/22 00:49:11;;;;;;;4.82;4.30;;;23.60;99.90;;;;;;6192335;28;87213;-64
2022/08/22 00:52:54;;;;;;;4.45;4.03;;;23.60;99.90;;;;;;6178267;28;89396;-64
2022/08/22 00:56:06;;;;;;;4.85;4.00;;;23.60;99.90;;;;;;6199494;28;89024;-64
2022/08/22 00:59:33;;;;;;;4.07;3.78;;;23.60;99.90;;;;;;6198963;28;89713;-64
2022/08/22 01:02:58;;;;;;;4.88;3.90;;;23.60;99.90;;;;;;6203905;28;88030;-64
2022/08/22 01:06:14;;;;;;;4.20;3.80;;;23.50;99.90;;;;;;6183623;28;89379;-64
2022/08/22 01:09:36;;;;;;;4.30;4.00;;;23.60;99.90;;;;;;6188106;28;89134;-64
2022/08/22 01:12:52;;;;;;;4.47;4.07;;;23.60;99.90;;;;;;6203169;28;89163;-64
2022/08/22 01:16:10;;;;;;;4.93;4.10;;;23.50;99.90;;;;;;6204261;28;89101;-64
2022/08/22 01:19:52;;;;;;;4.60;3.70;;;23.60;99.90;;;;;;6198912;28;89027;-64
2022/08/22 01:23:39;;;;;;;4.80;4.20;;;23.60;99.90;;;;;;6193936;28;88388;-63
2022/08/22 01:27:40;;;;;;;4.30;3.92;;;23.60;99.90;;;;;;6195503;28;88965;-64
2022/08/22 01:31:12;;;;;;;4.60;4.20;;;23.60;99.90;;;;;;6150737;28;89375;-64
2022/08/22 01:34:39;;;;;;;5.32;4.43;;;23.60;99.90;;;;;;6200503;28;92097;-64
2022/08/22 01:38:05;;;;;;;6.28;4.15;;;23.50;99.90;;;;;;6196134;28;88986;-64
2022/08/22 01:41:50;;;;;;;4.30;3.70;;;23.50;99.90;;;;;;6183829;28;89789;-64
2022/08/22 01:45:10;;;;;;;4.63;3.97;;;23.50;99.90;;;;;;6204518;28;89024;-64
2022/08/22 01:48:19;;;;;;;4.75;4.30;;;23.60;99.90;;;;;;6183608;28;89398;-64
2022/08/22 01:51:27;;;;;;;4.63;3.88;;;23.50;99.90;;;;;;6196305;28;89049;-64
2022/08/22 01:54:44;;;;;;;4.07;3.78;;;23.50;99.90;;;;;;6208852;28;89367;-64
2022/08/22 01:57:53;;;;;;;5.47;3.83;;;23.50;99.90;;;;;;6193359;28;88516;-64
2022/08/22 02:01:08;;;;;;;5.60;4.13;;;23.50;99.90;;;;;;6196552;28;89142;-64
2022/08/22 02:04:16;;;;;;;4.70;4.20;;;23.50;99.90;;;;;;6208142;28;89388;-64
2022/08/22 02:07:24;;;;;;;4.80;4.30;;;23.50;99.90;;;;;;6197685;28;89978;-64
2022/08/22 02:10:45;;;;;;;4.47;4.07;;;23.50;99.90;;;;;;6205436;28;89123;-64
2022/08/22 02:13:56;;;;;;;4.65;4.10;;;23.50;99.90;;;;;;6197560;28;89002;-64
2022/08/22 02:17:13;;;;;;;4.78;4.13;;;23.50;99.90;;;;;;6205505;28;89069;-64
2022/08/22 02:20:24;;;;;;;4.60;3.90;;;23.50;99.90;;;;;;6192353;28;89546;-64
2022/08/22 02:23:36;;;;;;;7.15;4.13;;;23.50;99.90;;;;;;6196903;28;89044;-63
2022/08/22 02:26:45;;;;;;;4.60;4.07;;;23.50;99.90;;;;;;6194462;28;89406;-64
2022/08/22 02:29:52;;;;;;;5.85;3.75;;;23.50;99.90;;;;;;6208855;28;88835;-64
2022/08/22 02:33:04;;;;;;;4.72;4.32;;;23.50;99.90;;;;;;6208451;28;89300;-64
2022/08/22 02:36:15;;;;;;;4.35;3.95;;;23.40;99.90;;;;;;6206490;28;87743;-64
2022/08/22 02:39:29;;;;;;;3.95;3.65;;;23.40;99.90;;;;;;6194202;28;89983;-64
2022/08/22 02:42:39;;;;;;;4.20;3.80;;;23.40;99.90;;;;;;6189725;28;89309;-64
2022/08/22 02:45:46;;;;;;;4.60;4.13;;;23.40;99.90;;;;;;6199067;28;89201;-64
2022/08/22 02:49:10;;;;;;;4.60;4.20;;;23.50;99.90;;;;;;6190133;28;89033;-64
2022/08/22 02:52:18;;;;;;;4.25;3.85;;;23.40;99.90;;;;;;6190299;28;89078;-64
2022/08/22 02:55:35;;;;;;;4.63;4.22;;;23.40;99.90;;;;;;6190879;28;89378;-64
2022/08/22 02:58:45;;;;;;;4.85;4.00;;;23.40;99.90;;;;;;6182138;28;89351;-64
2022/08/22 03:01:48;;;;;;;5.82;4.22;;;23.40;99.90;;;;;;6195111;28;88093;-64
2022/08/22 03:04:54;;;;;;;5.03;4.45;;;23.40;99.90;;;;;;6195564;28;88990;-64
2022/08/22 03:08:02;;;;;;;4.60;4.15;;;23.40;99.90;;;;;;6184519;28;89323;-64
2022/08/22 03:11:15;;;;;;;4.68;3.70;;;23.40;99.90;;;;;;6193733;28;90140;-64
2022/08/22 03:14:25;;;;;;;4.15;3.75;;;23.40;99.90;;;;;;6184815;28;89118;-64
2022/08/22 03:17:33;;;;;;;4.90;4.10;;;23.40;99.90;;;;;;6185778;28;90844;-64
2022/08/22 03:20:45;;;;;;;4.38;4.05;;;23.40;99.90;;;;;;6194044;28;87743;-64
2022/08/22 03:23:52;;;;;;;4.80;4.20;;;23.40;99.90;;;;;;6185628;28;89238;-64
2022/08/22 03:27:04;;;;;;;4.93;4.20;;;23.40;99.90;;;;;;6193101;28;89124;-64
2022/08/22 03:30:12;;;;;;;4.30;3.90;;;23.40;99.90;;;;;;6200809;28;89060;-64
2022/08/22 03:33:19;;;;;;;6.07;4.05;;;23.40;99.90;;;;;;6194895;28;88722;-64
2022/08/22 03:36:30;;;;;;;4.63;4.22;;;23.40;99.90;;;;;;6183195;28;89154;-63
2022/08/22 03:39:48;;;;;;;4.57;4.10;;;23.40;99.90;;;;;;6193656;28;87828;-63
2022/08/22 03:43:33;;;;;;;4.38;3.97;;;23.40;99.90;;;;;;6197774;28;90050;-63
2022/08/22 03:46:57;;;;;;;4.90;4.35;;;23.40;99.90;;;;;;6194808;28;89063;-63
2022/08/22 03:50:35;;;;;;;5.40;4.18;;;23.40;99.90;;;;;;6182191;28;89695;-63
2022/08/22 03:54:05;;;;;;;4.60;4.18;;;23.40;99.90;;;;;;6199806;28;89089;-64
2022/08/22 03:57:43;;;;;;;4.43;3.92;;;23.40;99.90;;;;;;6194933;28;88984;-63
2022/08/22 04:01:21;;;;;;;6.43;4.13;;;23.40;99.90;;;;;;6165395;28;89285;-64
2022/08/22 04:05:05;;;;;;;4.18;3.88;;;23.40;99.90;;;;;;6201734;28;89318;-64
2022/08/22 04:08:39;;;;;;;4.85;4.40;;;23.40;99.90;;;;;;6182896;28;88636;-64
2022/08/22 04:12:22;;;;;;;5.47;3.92;;;23.30;99.90;;;;;;6170871;28;89155;-64
2022/08/22 04:15:58;;;;;;;4.43;4.03;;;23.40;99.90;;;;;;6194424;28;89039;-64
2022/08/22 04:19:15;;;;;;;5.95;3.83;;;23.30;99.90;;;;;;6173396;28;90098;-64
2022/08/22 04:22:33;;;;;;;4.60;4.20;;;23.30;99.90;;;;;;6194436;28;89138;-64
2022/08/22 04:25:39;;;;;;;5.60;4.45;;;23.30;99.90;;;;;;6194275;28;88982;-64
2022/08/22 04:28:46;;;;;;;5.20;3.92;;;23.30;99.90;;;;;;6205975;28;89442;-63
2022/08/22 04:31:56;;;;;;;5.22;4.72;;;23.30;99.90;;;;;;6198450;28;89255;-64
2022/08/22 04:35:07;;;;;;;4.55;4.10;;;23.30;99.90;;;;;;6194036;28;89146;-64
2022/08/22 04:38:15;;;;;;;4.50;4.10;;;23.30;99.90;;;;;;6206540;28;89157;-64
2022/08/22 04:41:24;;;;;;;4.60;4.20;;;23.30;99.90;;;;;;6182870;28;88604;-64
2022/08/22 04:44:32;;;;;;;4.10;3.80;;;23.30;99.90;;;;;;6200454;28;89286;-64
2022/08/22 04:47:39;;;;;;;4.18;3.75;;;23.30;99.90;;;;;;6193088;28;89143;-64
2022/08/22 04:50:46;;;;;;;3.95;3.63;;;23.30;99.90;;;;;;6193880;28;88895;-64
2022/08/22 04:54:37;;;;;;;4.82;4.43;;;23.30;99.90;;;;;;6190183;28;89078;-63
2022/08/22 04:57:50;;;;;;;5.05;4.65;;;23.30;99.90;;;;;;6147771;28;88056;-64
2022/08/22 05:00:59;;;;;;;4.55;4.10;;;23.30;99.90;;;;;;6182640;28;89036;-64
2022/08/22 05:04:05;;;;;;;4.85;4.22;;;23.30;99.90;;;;;;6184168;28;89077;-64
2022/08/22 05:07:12;;;;;;;4.80;4.32;;;23.30;99.90;;;;;;6190742;28;89054;-64
2022/08/22 05:10:19;;;;;;;4.70;4.30;;;23.30;99.90;;;;;;6190769;28;89234;-64
2022/08/22 05:13:26;;;;;;;4.90;4.32;;;23.30;99.90;;;;;;6190677;28;87666;-64
2022/08/22 05:16:33;;;;;;;5.22;4.32;;;23.30;99.90;;;;;;6186643;28;89099;-64
2022/08/22 05:19:39;;;;;;;5.93;4.40;;;23.30;99.90;;;;;;6187858;28;89577;-65
2022/08/22 05:22:46;;;;;;;5.53;4.72;;;23.30;99.90;;;;;;6187274;28;90084;-64
2022/08/22 05:25:51;;;;;;;5.97;4.32;;;23.30;99.90;;;;;;6197287;28;88565;-64
2022/08/22 05:29:00;;;;;;;5.75;4.50;;;23.30;99.90;;;;;;6199623;28;88968;-64
2022/08/22 05:32:05;;;;;;;4.50;4.10;;;23.30;99.90;;;;;;6197388;28;89350;-64
2022/08/22 05:35:09;;;;;;;4.95;4.10;;;23.30;99.90;;;;;;6186141;28;89411;-64
2022/08/22 05:38:17;;;;;;;4.70;4.30;;;23.30;99.90;;;;;;6195938;28;89136;-64
2022/08/22 05:41:24;;;;;;;6.00;4.25;;;23.30;99.90;;;;;;6197184;28;89139;-64
2022/08/22 05:44:30;;;;;;;5.53;4.60;;;23.30;99.90;;;;;;6202085;28;88368;-64
2022/08/22 05:47:37;;;;;;;9.60;4.00;;;23.30;99.90;;;;;;6193427;28;89094;-64
2022/08/22 05:50:57;;;;;;;4.75;4.35;;;23.30;99.90;;;;;;6191877;28;89417;-65
2022/08/22 05:54:11;;;;;;;5.15;4.18;;;23.30;99.90;;;;;;6185169;28;89954;-64
2022/08/22 05:57:22;;;;;;;6.53;4.55;;;23.30;99.90;;;;;;6190411;28;89170;-64
2022/08/22 06:00:26;;;;;;;4.50;4.10;;;23.30;99.90;;;;;;6203795;28;89793;-64
2022/08/22 06:03:35;;;;;;;4.53;4.10;;;23.30;99.90;;;;;;6202387;28;89211;-64
2022/08/22 06:06:41;;;;;;;4.53;4.13;;;23.30;99.90;;;;;;6204206;28;89236;-64
2022/08/22 06:10:17;;;;;;;4.60;4.20;;;23.30;99.90;;;;;;6189372;28;89013;-64
2022/08/22 06:13:31;;;;;;;4.03;3.72;;;23.30;99.90;;;;;;6186691;28;89056;-64
2022/08/22 06:16:41;;;;;;;4.47;4.10;;;23.30;99.90;;;;;;6196829;28;88147;-64
2022/08/22 06:19:48;;;;;;;4.78;4.20;;;23.30;99.90;;;;;;6190694;28;88935;-64
2022/08/22 06:22:53;;;;;;;4.45;4.05;;;23.20;99.90;;;;;;6202176;28;88971;-64
2022/08/22 06:25:59;;;;;;;4.30;3.90;;;23.30;99.90;;;;;;6185260;28;88833;-64
2022/08/22 06:29:06;;;;;;;4.38;3.97;;;23.30;99.90;;;;;;6197824;28;89251;-64
2022/08/22 06:32:14;;;;;;;4.78;3.72;;;23.20;99.90;;;;;;6194232;28;89403;-64
2022/08/22 06:35:21;;;;;;;4.55;4.00;;;23.20;99.90;;;;;;6204891;28;87933;-64
2022/08/22 06:38:28;;;;;;;4.22;3.83;;;23.20;99.90;;;;;;6185423;28;88078;-64
2022/08/22 06:41:34;;;;;;;4.53;3.58;;;23.20;99.90;;;;;;6196851;28;88890;-64
2022/08/22 06:44:40;;;;;;;3.85;3.45;;;23.20;99.90;;;;;;6204491;28;89054;-64
2022/08/22 06:47:47;;;;;;;4.13;3.63;;;23.20;99.90;;;;;;6185819;28;88405;-64
2022/08/22 06:50:53;;;;;;;4.30;3.90;;;23.20;99.90;;;;;;6198066;28;89021;-64
2022/08/22 06:54:00;;;;;;;4.40;4.00;;;23.20;99.90;;;;;;6198312;28;89801;-64
2022/08/22 06:57:05;;;;;;;4.18;3.75;;;23.20;99.90;;;;;;6194075;28;90358;-64
2022/08/22 07:00:12;;;;;;;7.50;3.92;;;23.10;99.90;;;;;;6204353;28;88882;-64
2022/08/22 07:03:23;;;;;;;4.20;3.80;;;23.10;99.90;;;;;;6190904;28;89055;-64
2022/08/22 07:06:31;;;;;;;4.10;3.70;;;23.20;99.90;;;;;;6183382;28;89055;-64
2022/08/22 07:09:36;;;;;;;3.65;3.35;;;23.20;99.90;;;;;;6190570;28;89374;-64
2022/08/22 07:12:43;;;;;;;3.90;3.50;;;23.10;99.90;;;;;;6203423;28;89141;-64
2022/08/22 07:15:53;;;;;;;4.47;3.70;;;23.20;99.90;;;;;;6202248;28;89096;-64
2022/08/22 07:18:56;;;;;;;4.28;3.80;;;23.20;99.90;;;;;;6196931;28;87279;-64
2022/08/22 07:22:00;;;;;;;4.28;3.38;;;23.10;99.90;;;;;;6195832;28;89354;-64
2022/08/22 07:25:08;;;;;;;4.82;3.97;;;23.10;99.90;;;;;;6186316;28;89142;-64
2022/08/22 07:28:20;;;;;;;3.83;3.47;;;23.10;99.90;;;;;;6185276;28;90041;-64
2022/08/22 07:31:35;;;;;;;5.00;3.40;;;23.10;99.90;;;;;;6207346;28;89058;-64
2022/08/22 07:34:50;;;;;;;5.47;3.45;;;23.20;99.90;;;;;;6206855;28;89398;-64
2022/08/22 07:38:02;;;;;;;4.57;3.67;;;23.10;99.90;;;;;;6205843;28;89267;-64
2022/08/22 07:41:12;;;;;;;4.47;3.60;;;23.10;99.90;;;;;;6203651;28;89240;-64
2022/08/22 07:44:18;;;;;;;4.88;3.47;;;23.10;99.90;;;;;;6199726;28;89027;-64
2022/08/22 07:47:24;;;;;;;4.40;3.50;;;23.10;99.90;;;;;;6206930;28;89033;-64
2022/08/22 07:50:30;;;;;;;4.68;3.17;;;23.00;99.90;;;;;;6205398;28;88674;-64
2022/08/22 07:53:40;;;;;;;4.95;3.83;;;23.00;99.90;;;;;;6204719;28;89085;-64
2022/08/22 07:56:45;;;;;;;4.30;3.88;;;23.00;99.90;;;;;;6195266;28;87944;-64
2022/08/22 07:59:52;;;;;;;3.78;3.28;;;23.00;99.90;;;;;;6199456;28;90165;-64
2022/08/22 08:02:58;;;;;;;4.40;3.33;;;23.00;99.90;;;;;;6185721;28;87981;-64
2022/08/22 08:06:01;;;;;;;5.07;3.40;;;23.00;99.90;;;;;;6190373;28;89125;-64
2022/08/22 08:09:05;;;;;;;4.38;3.65;;;23.00;99.90;;;;;;6202026;28;89072;-64
2022/08/22 08:12:10;;;;;;;5.63;3.22;;;23.00;99.90;;;;;;6194817;28;89185;-64
2022/08/22 08:15:17;;;;;;;5.13;3.38;;;23.10;99.90;;;;;;6198449;28;89053;-64
2022/08/22 08:18:24;;;;;;;4.47;3.60;;;23.00;99.90;;;;;;6184519;28;89076;-64
2022/08/22 08:21:33;;;;;;;8.18;4.10;;;23.00;99.90;;;;;;6196178;28;88809;-64
2022/08/22 08:24:38;;;;;;;4.50;4.10;;;23.00;99.90;;;;;;6194694;28;89089;-64
2022/08/22 08:31:07;;;;;;;4.72;3.97;;;23.00;99.90;;;;;;6204970;28;89640;-64
2022/08/22 08:34:14;;;;;;;4.88;4.38;;;23.00;99.90;;;;;;6198369;28;89112;-64
2022/08/22 08:37:23;;;;;;;4.72;3.72;;;23.10;99.90;;;;;;6199451;28;89254;-64
2022/08/22 08:40:54;;;;;;;4.20;3.40;;;23.10;99.90;;;;;;6200865;28;89080;-64
2022/08/22 08:44:05;;;;;;;4.35;3.95;;;23.10;99.90;;;;;;6198875;28;89096;-64
2022/08/22 08:47:30;;;;;;;5.30;3.75;;;23.10;99.90;;;;;;6187534;28;89307;-64
2022/08/22 08:50:51;;;;;;;5.53;3.70;;;23.10;99.90;;;;;;6183891;28;89057;-64
2022/08/22 08:54:28;;;;;;;4.07;3.30;;;23.00;99.90;;;;;;6188045;28;87034;-64
2022/08/22 08:57:46;;;;;;;4.47;3.25;;;23.00;99.90;;;;;;6182921;28;88014;-64
2022/08/22 09:01:01;;;;;;;3.70;3.20;;;23.00;99.90;;;;;;6194800;28;89064;-64
2022/08/22 09:04:43;;;;;;;5.13;3.50;;;23.10;99.90;;;;;;6196366;28;90027;-63
2022/08/22 09:08:36;;;;;;;4.32;3.10;;;23.00;99.90;;;;;;6174945;28;87762;-64
2022/08/22 09:12:11;;;;;;;4.15;3.70;;;23.00;99.90;;;;;;6185512;28;88287;-64
2022/08/22 09:15:34;;;;;;;4.93;3.40;;;23.00;99.90;;;;;;6185708;28;89041;-64
2022/08/22 09:19:10;;;;;;;4.63;3.55;;;23.00;99.90;;;;;;6197553;28;89928;-64
2022/08/22 09:22:45;;;;;;;4.30;3.90;;;23.00;99.90;;;;;;6195392;28;89123;-63
2022/08/22 09:25:54;;;;;;;4.75;3.50;;;23.00;99.90;;;;;;6187562;28;89062;-64
2022/08/22 09:29:08;;;;;;;4.20;3.60;;;23.00;99.90;;;;;;6193262;28;88266;-63
2022/08/22 09:32:18;;;;;;;3.58;3.28;;;23.00;99.90;;;;;;6188512;28;89065;-64
2022/08/22 09:35:27;;;;;;;3.95;3.53;;;23.00;99.90;;;;;;6193954;28;89000;-64
2022/08/22 09:38:42;;;;;;;4.68;3.78;;;23.00;99.90;;;;;;6192620;28;90005;-64
2022/08/22 09:41:52;;;;;;;4.20;3.80;;;23.00;99.90;;;;;;6182975;28;89104;-63
2022/08/22 09:45:21;;;;;;;3.78;3.47;;;22.90;99.90;;;;;;6192423;28;89316;-63
2022/08/22 09:48:40;;;;;;;4.15;3.85;;;22.90;99.90;;;;;;6193944;28;89144;-64
2022/08/22 09:51:50;;;;;;;4.10;3.70;;;23.00;99.90;;;;;;6191151;28;89032;-64
2022/08/22 09:54:59;;;;;;;5.00;3.85;;;22.90;99.90;;;;;;6187427;28;89043;-64
2022/08/22 09:58:07;;;;;;;4.43;3.80;;;23.00;99.90;;;;;;6187123;28;89027;-64
2022/08/22 10:01:23;;;;;;;4.20;3.80;;;23.00;99.90;;;;;;6191014;28;88419;-64
2022/08/22 10:04:52;;;;;;;4.97;3.80;;;23.00;99.90;;;;;;6200162;28;89349;-64
2022/08/22 10:08:13;;;;;;;4.13;3.70;;;23.00;99.90;;;;;;6206247;28;89307;-64
2022/08/22 10:11:22;;;;;;;4.20;3.70;;;23.00;99.90;;;;;;6195964;28;89973;-64
2022/08/22 10:14:28;;;;;;;4.85;3.60;;;23.00;99.90;;;;;;6188916;28;89491;-64
2022/08/22 10:17:36;;;;;;;4.18;3.78;;;23.00;99.90;;;;;;6192055;28;89181;-64
2022/08/22 10:20:55;;;;;;;4.72;4.28;;;22.90;99.90;;;;;;6201706;28;89001;-64
2022/08/22 10:24:02;;;;;;;4.22;3.83;;;22.90;99.90;;;;;;6186745;28;89489;-64
2022/08/22 10:27:12;;;;;;;4.25;3.67;;;22.90;99.90;;;;;;6201147;28;88995;-64
2022/08/22 10:30:19;;;;;;;4.20;3.80;;;22.90;99.90;;;;;;6197631;28;89019;-64
2022/08/22 10:33:27;;;;;;;4.03;3.63;;;22.90;99.90;;;;;;6186785;28;88394;-64
2022/08/22 10:36:37;;;;;;;4.55;3.67;;;22.90;99.90;;;;;;6207795;28;89073;-63
2022/08/22 10:39:47;;;;;;;4.00;3.60;;;22.90;99.90;;;;;;6207779;28;90606;-64
2022/08/22 10:42:53;;;;;;;5.05;3.63;;;23.00;99.90;;;;;;6192758;28;89924;-64
2022/08/22 10:46:02;;;;;;;4.00;3.42;;;22.90;99.90;;;;;;6207121;28;89268;-64
2022/08/22 10:49:11;;;;;;;3.83;3.47;;;22.90;99.90;;;;;;6198935;28;88978;-64
2022/08/22 10:52:20;;;;;;;3.70;3.33;;;23.00;99.90;;;;;;6192076;28;91213;-64
2022/08/22 10:55:26;;;;;;;3.85;3.55;;;23.00;99.90;;;;;;6193170;28;89075;-64
2022/08/22 10:58:33;;;;;;;4.95;4.25;;;23.00;99.90;;;;;;6190278;28;88461;-64
2022/08/22 11:01:41;;;;;;;5.47;3.47;;;23.00;99.90;;;;;;6196217;28;89004;-64
2022/08/22 11:05:08;;;;;;;5.30;3.67;;;23.00;99.90;;;;;;6195974;28;88346;-64
2022/08/22 11:08:38;;;;;;;5.45;3.53;;;23.00;99.90;;;;;;6193418;28;89222;-63
2022/08/22 11:11:45;;;;;;;3.75;3.30;;;23.00;99.90;;;;;;6205791;28;88030;-63
2022/08/22 11:15:07;;;;;;;3.85;3.47;;;23.00;99.90;;;;;;6185343;28;88873;-63
2022/08/22 11:18:28;;;;;;;4.15;3.45;;;23.00;99.90;;;;;;6191978;28;89131;-64
2022/08/22 11:21:48;;;;;;;4.18;3.10;;;22.90;99.90;;;;;;6188402;28;89165;-64
2022/08/22 11:25:16;;;;;;;4.68;3.25;;;22.90;99.90;;;;;;6186697;28;87950;-63
2022/08/22 11:28:33;;;;;;;5.13;3.13;;;22.90;99.90;;;;;;6197367;28;89245;-64
2022/08/22 11:31:48;;;;;;;3.40;2.92;;;22.90;99.90;;;;;;6199210;28;89099;-64
2022/08/22 11:34:58;;;;;;;3.17;2.83;;;22.90;99.90;;;;;;6195464;28;89036;-63
2022/08/22 11:38:09;;;;;;;4.05;2.97;;;22.90;99.90;;;;;;6195299;28;87652;-63
2022/08/22 11:41:18;;;;;;;3.00;2.80;;;22.90;99.90;;;;;;6191164;28;89116;-64
2022/08/22 11:44:26;;;;;;;3.70;2.90;;;22.80;99.90;;;;;;6202040;28;89041;-64
2022/08/22 11:47:33;;;;;;;3.75;3.05;;;22.80;99.90;;;;;;6194964;28;88901;-64
2022/08/22 11:50:39;;;;;;;3.78;2.97;;;22.70;99.90;;;;;;6193817;28;89174;-64
2022/08/22 11:53:48;;;;;;;5.15;2.85;;;22.70;99.90;;;;;;6199947;28;89034;-64
2022/08/22 11:56:56;;;;;;;4.32;3.25;;;22.70;99.90;;;;;;6198710;28;89175;-64
2022/08/22 12:00:17;;;;;;;3.40;2.63;;;22.70;99.90;;;;;;6189581;28;89549;-64
2022/08/22 12:03:34;;;;;;;3.40;2.85;;;22.80;99.90;;;;;;6199233;28;88002;-64
2022/08/22 12:06:54;;;;;;;3.00;2.67;;;22.80;99.90;;;;;;6202899;28;89310;-64
2022/08/22 12:09:59;;;;;;;2.85;2.65;;;22.80;99.90;;;;;;6205195;28;87135;-64
2022/08/22 12:13:06;;;;;;;4.40;2.80;;;22.80;99.90;;;;;;6199832;28;87882;-64
2022/08/22 12:16:15;;;;;;;3.33;2.70;;;22.80;99.90;;;;;;6203276;28;89172;-63
2022/08/22 12:19:26;;;;;;;3.13;2.80;;;22.80;99.90;;;;;;6191487;28;90139;-64
2022/08/22 12:22:54;;;;;;;3.78;2.92;;;22.80;99.90;;;;;;6194730;28;89026;-64
2022/08/22 12:26:10;;;;;;;3.08;2.78;;;22.80;99.90;;;;;;6182047;28;88629;-64
2022/08/22 12:29:26;;;;;;;3.20;2.80;;;22.80;99.90;;;;;;6193596;28;89078;-63
2022/08/22 12:33:13;;;;;;;3.83;3.08;;;22.80;99.90;;;;;;6193755;28;88987;-64
2022/08/22 12:36:42;;;;;;;4.25;2.97;;;22.70;99.90;;;;;;6189803;28;88894;-63
2022/08/22 12:40:14;;;;;;;2.90;2.70;;;22.70;99.70;;;;;;6189156;28;87628;-64
2022/08/22 12:43:37;;;;;;;3.05;2.72;;;22.70;99.90;;;;;;6178663;28;88447;-64
2022/08/22 12:46:55;;;;;;;3.20;2.90;;;22.70;99.90;;;;;;6205172;28;89144;-64
2022/08/22 12:50:11;;;;;;;3.53;3.10;;;22.70;99.90;;;;;;6204294;28;88156;-63
2022/08/22 12:53:53;;;;;;;2.88;2.63;;;22.70;99.90;;;;;;6192175;28;90093;-64
2022/08/22 12:57:04;;;;;;;3.58;2.80;;;22.70;99.90;;;;;;6185344;28;89090;-63
2022/08/22 13:00:29;;;;;;;3.10;2.70;;;22.70;99.50;;;;;;6188476;28;89027;-64
2022/08/22 13:03:36;;;;;;;3.17;2.70;;;22.70;99.90;;;;;;6205176;28;88321;-63
2022/08/22 13:07:05;;;;;;;2.90;2.60;;;22.70;99.90;;;;;;6183558;28;89067;-64
2022/08/22 13:10:32;;;;;;;2.88;2.60;;;22.70;99.90;;;;;;6191619;28;89073;-64
2022/08/22 13:13:39;;;;;;;3.10;2.75;;;22.70;99.90;;;;;;6189420;28;88968;-64
2022/08/22 13:16:48;;;;;;;3.20;2.83;;;22.80;99.90;;;;;;6194733;28;88352;-63
2022/08/22 13:19:58;;;;;;;3.10;2.70;;;22.80;99.90;;;;;;6183671;28;89118;-64
2022/08/22 13:23:05;;;;;;;3.05;2.63;;;22.80;99.90;;;;;;6199259;28;89046;-64
2022/08/22 13:26:14;;;;;;;2.70;2.50;;;22.80;99.90;;;;;;6202409;28;90018;-63
2022/08/22 13:29:20;;;;;;;2.92;2.63;;;22.90;99.90;;;;;;6204840;28;89050;-64
2022/08/22 13:32:30;;;;;;;3.65;2.55;;;22.80;99.80;;;;;;6187493;28;87858;-64
2022/08/22 13:35:35;;;;;;;2.75;2.47;;;22.80;99.90;;;;;;6192309;28;87970;-63
2022/08/22 13:38:47;;;;;;;3.70;3.03;;;22.90;99.90;;;;;;6193168;28;89129;-64
2022/08/22 13:41:51;;;;;;;3.97;2.85;;;22.90;99.90;;;;;;6192580;28;89057;-63
2022/08/22 13:44:55;;;;;;;3.15;2.85;;;22.80;99.90;;;;;;6197661;28;89080;-64
2022/08/22 13:48:01;;;;;;;3.17;2.65;;;22.80;99.90;;;;;;6204278;28;88357;-64
2022/08/22 13:51:09;;;;;;;3.63;2.65;;;22.90;99.90;;;;;;6196434;28;89337;-64
2022/08/22 13:54:45;;;;;;;2.72;2.53;;;22.90;99.90;;;;;;6194083;28;89169;-63
2022/08/22 13:57:51;;;;;;;3.05;2.75;;;22.90;99.90;;;;;;6187035;28;90159;-64
2022/08/22 14:01:15;;;;;;;3.20;2.90;;;22.90;99.90;;;;;;6196465;28;89115;-63
2022/08/22 14:04:24;;;;;;;2.85;2.65;;;22.90;99.90;;;;;;6186751;28;89119;-64
2022/08/22 14:07:33;;;;;;;2.75;2.42;;;22.90;99.90;;;;;;6194772;28;89112;-63
2022/08/22 14:10:39;;;;;;;3.20;2.47;;;22.90;99.90;;;;;;6208187;28;87873;-64
2022/08/22 14:13:45;;;;;;;3.65;2.90;;;22.90;99.90;;;;;;6193274;28;88035;-64
2022/08/22 14:16:49;;;;;;;3.33;2.80;;;22.90;99.90;;;;;;6204036;28;89020;-63
2022/08/22 14:19:58;;;;;;;4.35;2.90;;;22.90;99.90;;;;;;6203786;28;88290;-64
2022/08/22 14:23:04;;;;;;;3.08;2.78;;;22.90;99.90;;;;;;6193417;28;89535;-64
2022/08/22 14:26:06;;;;;;;3.35;2.70;;;22.90;99.90;;;;;;6208520;28;87844;-64
2022/08/22 14:29:14;;;;;;;3.30;3.00;;;22.90;99.90;;;;;;6205463;28;90310;-63
2022/08/22 14:32:42;;;;;;;3.97;3.53;;;22.90;99.90;;;;;;6199268;28;89029;-64
2022/08/22 14:35:51;;;;;;;3.08;2.78;;;22.90;99.90;;;;;;6193675;28;89417;-64
2022/08/22 14:38:57;;;;;;;4.05;3.20;;;22.90;99.90;;;;;;6205004;28;87879;-64
2022/08/22 14:42:08;;;;;;;3.75;3.20;;;22.90;99.90;;;;;;6197357;28;89117;-64
2022/08/22 14:45:16;;;;;;;3.95;3.30;;;22.90;99.90;;;;;;6198591;28;89237;-64
2022/08/22 14:48:25;;;;;;;4.68;3.20;;;22.90;99.90;;;;;;6200363;28;89097;-64
2022/08/22 14:51:30;;;;;;;3.60;2.80;;;22.90;99.90;;;;;;6199478;28;88319;-64
2022/08/22 14:54:32;;;;;;;3.05;2.78;;;22.80;99.90;;;;;;6204927;28;89056;-64
2022/08/22 14:57:36;;;;;;;3.13;2.78;;;22.80;99.90;;;;;;6202618;28;87786;-64
2022/08/22 15:00:42;;;;;;;3.22;2.60;;;22.80;99.90;;;;;;6202822;28;90217;-64
2022/08/22 15:03:52;;;;;;;2.90;2.47;;;22.80;99.90;;;;;;6197020;28;89086;-64
2022/08/22 15:06:58;;;;;;;2.85;2.45;;;22.80;99.90;;;;;;6195121;28;88002;-64
2022/08/22 15:10:04;;;;;;;3.55;2.40;;;22.70;99.90;;;;;;6194975;28;88985;-64
2022/08/22 15:13:08;;;;;;;2.83;2.50;;;22.80;99.90;;;;;;6206557;28;89433;-64
2022/08/22 15:16:17;;;;;;;3.53;2.55;;;22.80;99.90;;;;;;6210791;28;89028;-64
2022/08/22 15:19:26;;;;;;;2.65;2.40;;;22.80;99.90;;;;;;6191290;28;89373;-64
2022/08/22 15:22:29;;;;;;;2.47;2.28;;;22.80;99.90;;;;;;6194615;28;89100;-63
2022/08/22 15:25:36;;;;;;;2.90;2.60;;;22.80;99.90;;;;;;6190043;28;89283;-64
2022/08/22 15:28:38;;;;;;;3.10;2.38;;;22.80;99.90;;;;;;6196832;28;89090;-64
2022/08/22 15:31:41;;;;;;;3.03;2.28;;;22.80;99.90;;;;;;6197222;28;90375;-64
2022/08/22 15:34:46;;;;;;;2.42;2.20;;;22.80;99.90;;;;;;6191046;28;89063;-64
2022/08/22 15:37:58;;;;;;;2.40;2.20;;;22.80;99.90;;;;;;6188056;28;89080;-64
2022/08/22 15:41:29;;;;;;;2.65;2.45;;;22.70;99.90;;;;;;6199175;28;89041;-64
2022/08/22 15:44:35;;;;;;;2.60;2.40;;;22.80;99.90;;;;;;6200152;28;88887;-64
2022/08/22 15:47:40;;;;;;;2.60;2.40;;;22.70;99.90;;;;;;6192877;28;89168;-64
2022/08/22 15:50:59;;;;;;;2.42;2.10;;;22.80;99.90;;;;;;6193190;28;89089;-64
2022/08/22 15:54:07;;;;;;;3.15;2.20;;;22.80;99.90;;;;;;6191049;28;88453;-64
2022/08/22 15:57:17;;;;;;;2.38;2.17;;;22.80;99.90;;;;;;6201068;28;88870;-64
2022/08/22 16:00:29;;;;;;;2.70;2.30;;;22.80;99.90;;;;;;6205593;28;89068;-64
2022/08/22 16:03:33;;;;;;;2.65;2.30;;;22.70;99.90;;;;;;6193527;28;90074;-64
2022/08/22 16:06:53;;;;;;;3.75;2.13;;;22.80;99.90;;;;;;6194193;28;89036;-64
2022/08/22 16:09:59;;;;;;;2.33;2.10;;;22.80;99.90;;;;;;6200658;28;90687;-64
2022/08/22 16:13:28;;;;;;;3.03;2.30;;;22.80;99.90;;;;;;6201419;28;89046;-64
2022/08/22 16:17:08;;;;;;;3.28;2.72;;;22.80;99.90;;;;;;6182676;28;89471;-64
2022/08/22 16:20:55;;;;;;;3.88;2.20;;;22.80;99.90;;;;;;6197230;28;88668;-64
2022/08/22 16:24:31;;;;;;;2.78;2.58;;;22.80;99.90;;;;;;6170012;28;89480;-64
2022/08/22 16:27:35;;;;;;;2.70;2.15;;;22.80;99.90;;;;;;6199974;28;87089;-64
2022/08/22 16:30:39;;;;;;;2.40;2.20;;;22.80;99.90;;;;;;6204855;28;89071;-63
2022/08/22 16:33:42;;;;;;;2.50;2.30;;;22.80;99.90;;;;;;6199295;28;89517;-64
2022/08/22 16:36:48;;;;;;;2.60;2.40;;;22.80;99.90;;;;;;6186674;28;89990;-63
2022/08/22 16:40:04;;;;;;;2.50;2.30;;;22.80;99.90;;;;;;6196282;28;89030;-64
2022/08/22 16:43:15;;;;;;;3.95;2.50;;;22.80;99.90;;;;;;6194386;28;89485;-64
2022/08/22 16:46:27;;;;;;;2.47;2.20;;;22.80;99.90;;;;;;6188535;28;89133;-64
2022/08/22 16:49:32;;;;;;;2.45;2.25;;;22.80;99.90;;;;;;6193785;28;89153;-63
2022/08/22 16:53:02;;;;;;;2.65;2.40;;;22.70;99.90;;;;;;6194582;28;89082;-63